Flight Track Log - Related Links

Times and Time Zones

All times are in EDT time to prevent confusion due to time zone crossing. See the AAL1459 flight status page for this flight to view local times or setup timezone preferences in your user account.

Time Position Orientation Groundspeed Altitude Reporting Facility
EDT Latitude Longitude Course Direction KTS MPH feet Rate Location/Type
Fri 04:07:41 PM 42.3667 -70.9667 300° West 161 185 1,200  Level KA90
Fri 04:08:18 PM 42.3667 -70.9333 90° East 196 226 2,100 2,082 Climbing KA90
Fri 04:09:19 PM 42.3833 -70.8333 77° East 249 287 4,600 2,826 Climbing KA90
Fri 04:10:19 PM 42.4333 -70.7667 45° Northeast 279 321 7,800 2,014 Climbing KA90
Fri 04:11:00 PM 42.5965 -70.8687 308° West  Level FlightAware Approximate
Fri 04:11:39 PM 42.5347 -70.8256 337° Northwest 288 331 9,300  Level Boston Center
Fri 04:12:00 PM 42.6505 -70.9745 300° West  Level FlightAware Approximate
Fri 04:12:39 PM 42.5797 -70.9175 304° West 278 320 12,000  Level Boston Center
Fri 04:13:00 PM 42.6973 -71.0868 300° West  Level FlightAware Approximate
Fri 04:13:39 PM 42.6311 -71.0094 307° West 330 380 14,200  Level Boston Center
Fri 04:14:39 PM 42.6972 -71.1264 308° West 354 407 17,100 2,500 Climbing Boston Center
Fri 04:15:39 PM 42.7631 -71.2411 308° West 361 415 19,200 2,250 Climbing Boston Center
Fri 04:16:39 PM 42.7975 -71.3733 290° West 372 428 21,600 2,200 Climbing Boston Center
Fri 04:17:39 PM 42.8094 -71.5203 276° West 372 428 23,600 1,950 Climbing Boston Center
Fri 04:18:39 PM 42.8208 -71.6561 277° West 394 453 25,500 1,750 Climbing Boston Center
Fri 04:19:39 PM 42.8342 -71.8058 277° West 406 467 27,100 1,400 Climbing Boston Center
Fri 04:20:39 PM 42.8475 -71.9614 277° West 406 467 28,300 1,200 Climbing Boston Center
Fri 04:21:39 PM 42.8625 -72.1172 278° West 411 473 29,500 1,500 Climbing Boston Center
Fri 04:22:39 PM 42.8839 -72.2758 280° West 417 480 31,300 1,900 Climbing Boston Center
Fri 04:23:39 PM 42.8964 -72.4286 276° West 424 488 33,300 1,300 Climbing Boston Center
Fri 04:24:39 PM 42.9067 -72.5789 275° West 412 474 33,900 350 Climbing Boston Center
Fri 04:25:39 PM 42.9147 -72.7350 274° West 397 457 34,000 45 Climbing Boston Center
Fri 04:26:51 PM 42.9269 -72.8825 277° West 390 449 34,000  Level Boston Center
Fri 04:27:51 PM 42.9447 -73.0414 279° West 390 449 34,000  Level Boston Center
Fri 04:28:51 PM 42.9564 -73.1861 276° West 390 449 34,000  Level Boston Center
Fri 04:29:51 PM 42.9681 -73.3311 276° West 390 449 34,000  Level Boston Center
Fri 04:30:51 PM 42.9769 -73.4844 275° West 385 443 34,000 -50 Level Boston Center
Fri 04:31:51 PM 42.9861 -73.6264 275° West 385 443 33,900 -50 Descending Boston Center
Fri 04:32:51 PM 42.9969 -73.7686 276° West 385 443 33,900 50 Level Boston Center
Fri 04:33:51 PM 43.0100 -73.9108 277° West 385 443 34,000 50 Climbing Boston Center
Fri 04:34:51 PM 43.0206 -74.0531 276° West 385 443 34,000  Level Boston Center
Fri 04:35:51 PM 43.0308 -74.2011 275° West 385 443 34,000 -50 Level Boston Center
Fri 04:36:51 PM 43.0431 -74.3436 277° West 390 449 33,900  Descending Boston Center
Fri 04:37:51 PM 43.0511 -74.4886 274° West 390 449 34,000 50 Climbing Boston Center
Fri 04:38:51 PM 43.0628 -74.6369 276° West 390 449 34,000  Level Boston Center
Fri 04:39:51 PM 43.0725 -74.7822 275° West 390 449 34,000  Level Boston Center
Fri 04:40:51 PM 43.0819 -74.9275 275° West 390 449 34,000  Level Boston Center
Fri 04:41:51 PM 43.0911 -75.0786 275° West 390 449 34,000  Level Boston Center
Fri 04:42:51 PM 43.1000 -75.2269 275° West 390 449 34,000  Level Boston Center
Fri 04:43:51 PM 43.1108 -75.3781 276° West 395 455 34,000  Level Boston Center
Fri 04:44:51 PM 43.1214 -75.5267 276° West 395 455 34,000 -50 Level Boston Center
Fri 04:45:51 PM 43.1300 -75.6722 275° West 395 455 33,900  Descending Boston Center
Fri 04:46:51 PM 43.1381 -75.8178 274° West 390 449 34,000  Climbing Boston Center
Fri 04:47:51 PM 43.1464 -75.9633 275° West 385 443 33,900  Descending Boston Center
Fri 04:49:45 PM 43.1500 -76.2000 271° West 370 426 34,000  Climbing Toronto Center
Fri 04:50:09 PM 43.1594 -76.2708 280° West 377 434 33,900  Descending Cleveland Center
Fri 04:51:10 PM 43.1603 -76.4103 271° West 371 427 34,000 50 Climbing Cleveland Center
Fri 04:52:10 PM 43.1611 -76.5497 271° West 371 427 34,000  Level Cleveland Center
Fri 04:53:09 PM 43.1594 -76.6867 269° West 365 420 34,000  Level Cleveland Center
Fri 04:54:10 PM 43.1581 -76.8347 269° West 365 420 34,000  Level Cleveland Center
Fri 04:55:10 PM 43.1583 -76.9714 270° West 365 420 34,000  Level Cleveland Center
Fri 04:56:10 PM 43.1564 -77.1111 269° West 365 420 34,000  Level Cleveland Center
Fri 04:57:09 PM 43.1561 -77.2475 270° West 365 420 34,000  Level Cleveland Center
Fri 04:58:10 PM 43.1558 -77.3872 270° West 365 420 34,000  Level Cleveland Center
Fri 04:59:10 PM 43.1536 -77.5267 269° West 365 420 34,000  Level Cleveland Center
Fri 05:00:09 PM 43.1528 -77.6633 270° West 365 420 34,000  Level Cleveland Center
Fri 05:01:09 PM 43.1522 -77.8028 270° West 365 420 34,000  Level Cleveland Center
Fri 05:02:09 PM 43.1489 -77.9283 268° West 365 420 34,000  Level Cleveland Center
Fri 05:03:10 PM 43.1478 -78.0650 269° West 365 420 34,000  Level Cleveland Center
Fri 05:04:09 PM 43.1444 -78.2044 268° West 365 420 34,000  Level Cleveland Center
Fri 05:05:10 PM 43.1431 -78.3439 269° West 365 420 34,000  Level Cleveland Center
Fri 05:06:09 PM 43.1392 -78.4806 268° West 365 420 34,000  Level Cleveland Center
Fri 05:07:10 PM 43.1542 -78.6225 278° West 365 420 34,000  Level Cleveland Center
Fri 05:08:09 PM 43.2003 -78.7578 295° West 370 426 34,000  Level Cleveland Center
Fri 05:09:45 PM 43.2000 -78.9667 270° West 370 426 34,000  Level Toronto Center
Fri 05:10:45 PM 43.1833 -79.1000 260° West 360 414 34,000  Level Toronto Center
Fri 05:11:45 PM 43.1667 -79.2500 261° West 370 426 34,000  Level Toronto Center
Fri 05:12:45 PM 43.1667 -79.3833 270° West 370 426 34,000  Level Toronto Center
Fri 05:13:45 PM 43.1500 -79.5167 260° West 370 426 34,000  Level Toronto Center
Fri 05:14:45 PM 43.1500 -79.6500 270° West 370 426 34,000  Level Toronto Center
Fri 05:15:45 PM 43.1333 -79.8000 261° West 370 426 34,000  Level Toronto Center
Fri 05:16:45 PM 43.1167 -79.9500 261° West 370 426 34,000  Level Toronto Center
Fri 05:17:45 PM 43.1167 -80.0833 270° West 370 426 34,000  Level Toronto Center
Fri 05:18:45 PM 43.1000 -80.2000 259° West 360 414 34,000  Level Toronto Center
Fri 05:19:45 PM 43.1000 -80.3333 270° West 350 403 34,000  Level Toronto Center
Fri 05:20:45 PM 43.0833 -80.4833 261° West 350 403 34,000  Level Toronto Center
Fri 05:21:45 PM 43.0667 -80.6167 260° West 350 403 34,000  Level Toronto Center
Fri 05:22:45 PM 43.0667 -80.7500 270° West 350 403 34,000  Level Toronto Center
Fri 05:23:45 PM 43.0333 -80.8833 251° West 350 403 34,000  Level Toronto Center
Fri 05:24:45 PM 43.0333 -81.0167 270° West 350 403 34,000  Level Toronto Center
Fri 05:25:45 PM 43.0167 -81.1333 259° West 350 403 34,000  Level Toronto Center
Fri 05:26:45 PM 43.0167 -81.3000 270° West 360 414 34,000  Level Toronto Center
Fri 05:27:45 PM 43.0167 -81.4167 270° West 360 414 34,000  Level Toronto Center
Fri 05:28:45 PM 43.0167 -81.5500 270° West 360 414 34,000  Level Toronto Center
Fri 05:29:45 PM 43.0167 -81.7000 270° West 360 414 34,000  Level Toronto Center
Fri 05:30:45 PM 43.0167 -81.8500 270° West 360 414 34,000  Level Toronto Center
Fri 05:31:45 PM 43.0000 -81.9833 260° West 360 414 34,000  Level Toronto Center
Fri 05:32:45 PM 43.0000 -82.1167 270° West 360 414 34,000  Level Toronto Center
Fri 05:33:45 PM 43.0000 -82.2500 270° West 370 426 34,000  Level Toronto Center
Fri 05:34:45 PM 43.0000 -82.3833 270° West 370 426 34,000  Level Toronto Center
Fri 05:35:45 PM 43.0000 -82.5333 270° West 370 426 34,000 -450 Level Toronto Center
Fri 05:36:45 PM 42.9833 -82.6833 261° West 370 426 33,100 -900 Descending Toronto Center
Fri 05:37:45 PM 42.9833 -82.8167 270° West 370 426 32,200 -550 Descending Toronto Center
Fri 05:38:45 PM 42.9833 -82.9667 270° West 380 437 32,000 -100 Descending Toronto Center
Fri 05:39:45 PM 42.9833 -83.1000 270° West 380 437 32,000  Level Toronto Center
Fri 05:40:45 PM 42.9667 -83.2500 261° West 380 437 32,000  Level Toronto Center
Fri 05:41:45 PM 42.9667 -83.4000 270° West 380 437 32,000  Level Toronto Center
Fri 05:42:45 PM 42.9667 -83.5333 270° West 380 437 32,000  Level Toronto Center
Fri 05:43:45 PM 42.9667 -83.6667 270° West 380 437 32,000  Level Toronto Center
Fri 05:44:45 PM 42.9333 -83.8000 251° West 370 426 32,000  Level Toronto Center
Fri 05:45:45 PM 42.9333 -83.9667 270° West 370 426 32,000 -450 Level Toronto Center
Fri 05:46:45 PM 42.9333 -84.1000 270° West 370 426 31,100 -865 Descending Toronto Center
Fri 05:47:29 PM 42.9250 -84.1831 262° West 374 430 30,500 -904 Descending Chicago Center
Fri 05:47:58 PM 42.9144 -84.2575 259° West 385 443 30,000 -1,146 Descending Cleveland Center
Fri 05:48:58 PM 42.9008 -84.4211 264° West 390 449 28,800 -1,326 Descending Cleveland Center
Fri 05:49:33 PM 42.8919 -84.5075 262° West 396 456 27,900 -1,237 Descending Chicago Center
Fri 05:50:35 PM 42.8769 -84.6553 262° West 394 453 26,800 -919 Descending Chicago Center
Fri 05:51:37 PM 42.8611 -84.8036 262° West 394 453 26,000 -387 Descending Chicago Center
Fri 05:52:39 PM 42.8456 -84.9503 262° West 393 452 26,000  Level Chicago Center
Fri 05:53:41 PM 42.8292 -85.0969 261° West 393 452 26,000  Level Chicago Center
Fri 05:54:44 PM 42.8142 -85.2442 262° West 392 451 26,000  Level Chicago Center
Fri 05:55:46 PM 42.7944 -85.4264 262° West 401 461 26,000  Level Chicago Center
Fri 05:56:48 PM 42.7725 -85.5792 259° West 408 470 26,000 -48 Level Chicago Center
Fri 05:57:50 PM 42.7439 -85.7297 256° West 409 471 25,900 -581 Descending Chicago Center
Fri 05:58:52 PM 42.7172 -85.8806 257° West 408 470 24,800 -1,000 Descending Chicago Center
Fri 05:59:56 PM 42.6903 -86.0286 256° West 403 464 23,800 -1,429 Descending Chicago Center
Fri 06:00:58 PM 42.6642 -86.1725 256° West 393 452 21,800 -2,129 Descending Chicago Center
Fri 06:02:00 PM 42.6325 -86.3350 255° West 371 427 19,400 -1,403 Descending Chicago Center
Fri 06:03:02 PM 42.6092 -86.4683 257° West 364 419 18,900 -677 Descending Chicago Center
Fri 06:04:04 PM 42.5828 -86.6039 255° West 372 428 18,000 -1,113 Descending Chicago Center
Fri 06:05:06 PM 42.5564 -86.7464 256° West 369 425 16,600 -1,536 Descending Chicago Center
Fri 06:06:09 PM 42.5225 -86.8697 250° West 373 429 14,800 -1,584 Descending Chicago Center
Fri 06:07:11 PM 42.4889 -86.9953 250° West 362 417 13,300 -1,403 Descending Chicago Center
Fri 06:08:13 PM 42.4536 -87.1158 248° West 351 404 11,900 -1,500 Descending Chicago Center
Fri 06:09:15 PM 42.4136 -87.2619 250° West 347 399 10,200 -919 Descending Chicago Center
Fri 06:10:17 PM 42.3797 -87.3808 249° West 342 394 10,000 -97 Descending Chicago Center
Fri 06:11:19 PM 42.3467 -87.5022 250° West 338 389 10,000  Level Chicago Center
Fri 06:12:21 PM 42.2831 -87.5933 227° Southwest 350 403 10,000  Level Chicago Center
Fri 06:13:23 PM 42.2069 -87.6731 218° Southwest 346 398 10,000 -97 Level Chicago Center
Fri 06:14:25 PM 42.1217 -87.7633 218° Southwest 323 372 9,800 -763 Descending Chicago Center
Fri 06:15:21 PM 42.0833 -87.8333 234° Southwest 275 316 8,500 -1,377 Descending Chicago TRACON
Fri 06:16:27 PM 42.1000 -87.9500 281° West 271 312 7,000 -850 Descending Chicago TRACON
Fri 06:17:21 PM 42.1000 -88.0333 270° West 265 305 6,800 -900 Descending Chicago TRACON
Fri 06:18:27 PM 42.1000 -88.1500 270° West 262 302 5,200 -1,333 Descending Chicago TRACON
Fri 06:19:27 PM 42.0833 -88.2500 257° West 261 300 4,000 -595 Descending Chicago TRACON
Fri 06:20:28 PM 42.0833 -88.3500 270° West 247 284 4,000  Level Chicago TRACON
Fri 06:21:28 PM 42.0667 -88.4167 251° West 242 278 4,000  Level Chicago TRACON
Fri 06:22:22 PM 42.0167 -88.4167 180° South 240 276 4,000  Level Chicago TRACON
Fri 06:22:42 PM 41.9994 -88.4008 146° Southeast 240 276 4,000  Level Chicago Center
Fri 06:23:44 PM 41.9828 -88.3347 109° East 205 236 4,000  Level Chicago Center
Fri 06:24:46 PM 41.9817 -88.2542 91° East 186 214 4,000  Level Chicago Center

Login

Don't have an account? Register now (free) for customized features, flight alerts, and more!